Time;durP1;ratioP1;P1;durP2;ratioP2;P2;SDS_P1;SDS_P2;PMS_P1;PMS_P2;Temp;Humidity;BMP_temperature;BMP_pressure;BME280_temperature;BME280_humidity;BME280_pressure;Samples;Min_cycle;Max_cycle;Signal;HPM_P1;HPM_P2
2023/09/01 00:01:31;;;;;;;13.30;5.28;;;10.60;99.70;;;;;;5057198;28;20025;-70
2023/09/01 00:03:57;;;;;;;12.25;5.95;;;10.60;99.60;;;;;;5064397;28;20497;-71
2023/09/01 00:06:22;;;;;;;13.20;5.45;;;10.50;99.50;;;;;;5069794;28;20059;-70
2023/09/01 00:08:48;;;;;;;12.60;5.60;;;10.50;99.70;;;;;;5063031;28;20032;-71
2023/09/01 00:11:13;;;;;;;16.00;5.70;;;10.50;99.60;;;;;;5065615;28;20033;-70
2023/09/01 00:13:39;;;;;;;12.38;5.50;;;10.50;99.70;;;;;;5063817;28;20028;-70
2023/09/01 00:16:05;;;;;;;14.18;5.97;;;10.40;99.60;;;;;;5064843;28;20028;-70
2023/09/01 00:18:32;;;;;;;16.45;6.20;;;10.50;99.70;;;;;;5064362;28;20036;-70
2023/09/01 00:20:59;;;;;;;15.77;5.90;;;10.50;99.70;;;;;;5066152;28;20493;-70
2023/09/01 00:23:25;;;;;;;19.10;6.00;;;10.50;99.60;;;;;;5072677;28;20097;-69
2023/09/01 00:25:52;;;;;;;12.48;4.95;;;10.50;99.60;;;;;;5066182;28;20536;-70
2023/09/01 00:28:18;;;;;;;15.55;5.80;;;10.50;99.60;;;;;;5066563;28;20021;-71
2023/09/01 00:30:55;;;;;;;13.25;5.60;;;10.40;99.60;;;;;;5068009;28;20031;-70
2023/09/01 00:33:21;;;;;;;15.55;5.55;;;10.40;99.60;;;;;;5060166;28;20078;-69
2023/09/01 00:35:50;;;;;;;16.83;6.00;;;10.50;99.70;;;;;;5066147;28;20055;-71
2023/09/01 00:38:15;;;;;;;13.98;5.30;;;10.40;99.60;;;;;;5066560;28;20024;-71
2023/09/01 00:40:41;;;;;;;14.13;5.68;;;10.40;99.70;;;;;;5063851;28;20029;-70
2023/09/01 00:43:06;;;;;;;12.35;5.10;;;10.40;99.70;;;;;;5068954;28;20107;-71
2023/09/01 00:45:33;;;;;;;18.83;5.80;;;10.40;99.70;;;;;;5068715;28;20024;-72
2023/09/01 00:47:58;;;;;;;16.00;6.05;;;10.40;99.70;;;;;;5068768;28;20364;-70
2023/09/01 00:50:23;;;;;;;15.00;5.93;;;10.40;99.70;;;;;;5071541;28;20016;-70
2023/09/01 00:52:49;;;;;;;11.35;5.70;;;10.30;99.60;;;;;;5072349;28;20035;-70
2023/09/01 00:55:15;;;;;;;20.58;5.60;;;10.40;99.70;;;;;;5068963;28;20075;-70
2023/09/01 00:57:41;;;;;;;14.60;6.03;;;10.30;99.60;;;;;;5071256;28;20162;-70
2023/09/01 01:00:06;;;;;;;10.15;5.20;;;10.30;99.70;;;;;;5067694;28;20036;-70
2023/09/01 01:02:32;;;;;;;11.45;4.93;;;10.30;99.80;;;;;;5069799;28;20036;-70
2023/09/01 01:04:58;;;;;;;16.60;5.60;;;10.30;99.70;;;;;;5068606;28;20028;-70
2023/09/01 01:07:30;;;;;;;13.35;6.10;;;10.30;99.70;;;;;;5072615;28;20032;-70
2023/09/01 01:10:11;;;;;;;12.63;5.38;;;10.30;99.70;;;;;;5068622;28;20476;-70
2023/09/01 01:12:52;;;;;;;11.07;5.63;;;10.30;99.70;;;;;;5067290;28;20116;-71
2023/09/01 01:15:20;;;;;;;11.98;5.70;;;10.20;99.70;;;;;;5066096;28;20115;-71
2023/09/01 01:17:46;;;;;;;15.73;5.53;;;10.30;99.80;;;;;;5065162;28;20029;-70
2023/09/01 01:20:34;;;;;;;13.52;5.70;;;10.20;99.70;;;;;;5068283;28;20040;-70
2023/09/01 01:23:09;;;;;;;14.48;5.70;;;10.10;99.70;;;;;;5067093;28;20182;-71
2023/09/01 01:25:36;;;;;;;14.35;5.93;;;10.10;99.70;;;;;;5067793;28;20460;-70
2023/09/01 01:28:08;;;;;;;14.77;5.47;;;10.20;99.80;;;;;;5069483;28;20060;-70
2023/09/01 01:30:36;;;;;;;17.35;6.15;;;10.20;99.80;;;;;;5069986;28;20020;-70
2023/09/01 01:33:02;;;;;;;18.00;6.20;;;10.10;99.70;;;;;;5066163;28;20117;-70
2023/09/01 01:35:48;;;;;;;14.13;5.93;;;10.10;99.70;;;;;;5067496;28;20537;-70
2023/09/01 01:38:20;;;;;;;15.45;5.85;;;10.10;99.80;;;;;;5071387;28;20039;-70
2023/09/01 01:40:50;;;;;;;15.30;6.45;;;10.10;99.80;;;;;;5068556;28;20420;-71
2023/09/01 01:43:21;;;;;;;17.77;6.38;;;10.10;99.80;;;;;;5065783;28;20025;-70
2023/09/01 01:45:46;;;;;;;18.52;6.50;;;10.10;99.90;;;;;;5062753;28;20039;-71
2023/09/01 01:48:12;;;;;;;18.42;6.32;;;10.10;99.80;;;;;;5068338;28;20036;-71
2023/09/01 01:50:37;;;;;;;15.25;6.53;;;10.10;99.80;;;;;;5069237;28;20461;-70
2023/09/01 01:53:05;;;;;;;14.35;6.57;;;10.10;99.80;;;;;;5064403;28;20021;-70
2023/09/01 01:55:32;;;;;;;17.27;6.78;;;10.10;99.70;;;;;;5067713;28;20025;-70
2023/09/01 01:57:58;;;;;;;15.18;6.10;;;10.10;99.70;;;;;;5070796;28;20028;-70
2023/09/01 02:00:26;;;;;;;20.33;7.18;;;10.10;99.80;;;;;;5067359;28;20036;-70
2023/09/01 02:02:52;;;;;;;19.23;6.75;;;10.10;99.90;;;;;;5068660;28;20034;-70
2023/09/01 02:05:17;;;;;;;17.10;6.55;;;10.10;99.90;;;;;;5065808;28;20025;-70
2023/09/01 02:07:43;;;;;;;21.33;7.10;;;10.10;99.80;;;;;;5071091;28;20113;-70
2023/09/01 02:10:09;;;;;;;21.67;6.60;;;10.10;99.80;;;;;;5064580;28;20028;-70
2023/09/01 02:12:34;;;;;;;17.15;6.47;;;10.10;99.80;;;;;;5058599;28;20035;-71
2023/09/01 02:15:00;;;;;;;22.95;7.45;;;10.10;99.80;;;;;;5065480;28;20029;-70
2023/09/01 02:17:26;;;;;;;22.10;8.05;;;10.10;99.90;;;;;;5066117;28;20024;-70
2023/09/01 02:19:51;;;;;;;16.58;6.93;;;10.10;99.90;;;;;;5066765;28;20029;-69
2023/09/01 02:22:17;;;;;;;19.15;6.82;;;10.10;99.70;;;;;;5069354;28;20040;-72
2023/09/01 02:24:42;;;;;;;19.85;6.93;;;10.00;99.70;;;;;;5065336;28;20044;-71
2023/09/01 02:27:08;;;;;;;21.58;7.53;;;10.00;99.80;;;;;;5068542;28;20072;-70
2023/09/01 02:29:33;;;;;;;16.10;7.15;;;10.10;99.90;;;;;;5067539;28;20031;-70
2023/09/01 02:31:59;;;;;;;21.60;7.55;;;10.00;99.80;;;;;;5066348;28;20032;-70
2023/09/01 02:34:24;;;;;;;15.18;7.45;;;10.00;99.80;;;;;;5068021;28;20032;-70
2023/09/01 02:36:50;;;;;;;19.48;7.32;;;9.90;99.80;;;;;;5063491;28;20029;-70
2023/09/01 02:39:16;;;;;;;19.85;7.25;;;9.90;99.80;;;;;;5065771;28;20033;-70
2023/09/01 02:41:42;;;;;;;21.23;7.50;;;9.90;99.70;;;;;;5057785;28;20025;-70
2023/09/01 02:44:08;;;;;;;23.98;8.18;;;9.90;99.80;;;;;;5070652;28;20496;-70
2023/09/01 02:46:33;;;;;;;20.58;7.53;;;9.90;99.70;;;;;;5068332;28;20405;-70
2023/09/01 02:48:59;;;;;;;22.42;7.78;;;9.80;99.70;;;;;;5068853;28;20055;-70
2023/09/01 02:51:24;;;;;;;20.67;7.63;;;9.80;99.80;;;;;;5065722;28;20472;-70
2023/09/01 02:53:50;;;;;;;20.10;7.95;;;9.80;99.90;;;;;;5071755;28;20103;-70
2023/09/01 02:56:17;;;;;;;18.80;7.18;;;9.80;99.90;;;;;;5070216;28;20039;-70
2023/09/01 02:58:43;;;;;;;15.68;7.18;;;9.80;99.80;;;;;;5066035;28;20388;-70
2023/09/01 03:01:09;;;;;;;17.45;7.55;;;9.80;99.80;;;;;;5067498;28;20036;-70
2023/09/01 03:03:36;;;;;;;19.13;8.35;;;9.70;99.70;;;;;;5067371;28;20115;-70
2023/09/01 03:06:05;;;;;;;19.58;7.88;;;9.60;99.80;;;;;;5064653;28;20062;-70
2023/09/01 03:08:31;;;;;;;17.92;7.95;;;9.60;99.80;;;;;;5068783;28;20024;-70
2023/09/01 03:10:57;;;;;;;21.65;7.63;;;9.60;99.80;;;;;;5069511;28;20056;-71
2023/09/01 03:13:22;;;;;;;21.55;8.02;;;9.60;99.70;;;;;;5069931;28;20073;-70
2023/09/01 03:15:47;;;;;;;22.90;8.00;;;9.50;99.90;;;;;;5068054;28;20028;-70
2023/09/01 03:18:14;;;;;;;16.35;7.75;;;9.60;99.90;;;;;;5065323;28;20078;-72
2023/09/01 03:20:40;;;;;;;19.55;8.45;;;9.60;99.90;;;;;;5063734;28;20036;-70
2023/09/01 03:23:05;;;;;;;18.67;8.90;;;9.60;99.90;;;;;;5069103;28;20077;-70
2023/09/01 03:25:31;;;;;;;26.70;8.55;;;9.60;99.90;;;;;;5067899;28;20036;-71
2023/09/01 03:27:57;;;;;;;26.92;9.00;;;9.60;99.90;;;;;;5061657;28;20416;-70
2023/09/01 03:30:23;;;;;;;22.63;8.93;;;9.60;99.90;;;;;;5069130;28;20031;-71
2023/09/01 03:32:48;;;;;;;21.48;8.45;;;9.60;99.90;;;;;;5065162;28;20040;-70
2023/09/01 03:35:14;;;;;;;27.85;9.35;;;9.60;99.90;;;;;;5066122;28;20616;-71
2023/09/01 03:37:40;;;;;;;21.17;8.70;;;9.60;99.90;;;;;;5068622;28;20035;-70
2023/09/01 03:40:09;;;;;;;22.08;9.13;;;9.60;99.90;;;;;;5070450;28;20472;-70
2023/09/01 03:42:36;;;;;;;24.98;9.43;;;9.60;99.90;;;;;;5062143;28;20025;-71
2023/09/01 03:45:02;;;;;;;22.25;9.18;;;9.60;99.90;;;;;;5069966;28;20025;-70
2023/09/01 03:47:27;;;;;;;22.48;9.55;;;9.50;99.90;;;;;;5066315;28;20067;-71
2023/09/01 03:49:53;;;;;;;23.60;9.77;;;9.40;99.90;;;;;;5066738;28;20108;-70
2023/09/01 03:52:18;;;;;;;25.05;8.23;;;9.40;99.90;;;;;;5066644;28;20043;-71
2023/09/01 03:54:44;;;;;;;21.80;8.80;;;9.40;99.90;;;;;;5070677;28;20384;-70
2023/09/01 03:57:09;;;;;;;22.98;8.43;;;9.30;99.90;;;;;;5066467;28;20036;-70
2023/09/01 03:59:35;;;;;;;20.35;9.38;;;9.30;99.90;;;;;;5064487;28;20520;-70
2023/09/01 04:02:00;;;;;;;28.42;10.45;;;9.30;99.90;;;;;;5062643;28;20106;-71
2023/09/01 04:04:27;;;;;;;26.15;9.73;;;9.30;99.90;;;;;;5064402;28;20032;-70
2023/09/01 04:06:53;;;;;;;25.77;10.25;;;9.40;99.90;;;;;;5064974;28;20035;-70
2023/09/01 04:09:19;;;;;;;28.73;10.25;;;9.40;99.90;;;;;;5065987;28;20032;-70
2023/09/01 04:11:44;;;;;;;27.63;9.60;;;9.40;99.90;;;;;;5064416;28;20028;-70
2023/09/01 04:14:11;;;;;;;30.77;10.82;;;9.40;99.90;;;;;;5067285;28;20485;-70
2023/09/01 04:16:37;;;;;;;23.85;10.25;;;9.50;99.90;;;;;;5067715;28;20031;-70
2023/09/01 04:19:03;;;;;;;26.45;10.25;;;9.40;99.90;;;;;;5061920;28;20032;-70
2023/09/01 04:21:29;;;;;;;31.23;11.52;;;9.40;99.90;;;;;;5072227;28;20032;-71
2023/09/01 04:23:54;;;;;;;27.98;10.77;;;9.40;99.90;;;;;;5069906;28;20496;-70
2023/09/01 04:26:20;;;;;;;25.15;10.07;;;9.40;99.90;;;;;;5068967;28;20719;-70
2023/09/01 04:28:45;;;;;;;25.25;10.48;;;9.40;99.90;;;;;;5065362;28;20028;-71
2023/09/01 04:31:32;;;;;;;27.00;11.40;;;9.40;99.90;;;;;;5063229;28;20083;-71
2023/09/01 04:33:58;;;;;;;30.10;11.52;;;9.40;99.90;;;;;;5065776;28;20485;-71
2023/09/01 04:36:23;;;;;;;31.08;11.02;;;9.30;99.90;;;;;;5067710;28;20059;-72
2023/09/01 04:38:49;;;;;;;24.52;11.18;;;9.40;99.90;;;;;;5068765;28;20029;-70
2023/09/01 04:41:14;;;;;;;28.83;11.10;;;9.40;99.90;;;;;;5065195;28;20163;-70
2023/09/01 04:43:41;;;;;;;29.23;10.75;;;9.40;99.90;;;;;;5068373;28;20069;-71
2023/09/01 04:46:07;;;;;;;31.92;10.77;;;9.30;99.90;;;;;;5063000;28;20075;-72
2023/09/01 04:48:34;;;;;;;29.85;11.18;;;9.30;99.90;;;;;;5064466;28;20036;-70
2023/09/01 04:51:02;;;;;;;29.73;10.88;;;9.30;99.90;;;;;;5069661;28;20016;-71
2023/09/01 04:53:28;;;;;;;32.03;12.02;;;9.40;99.90;;;;;;5064835;28;20028;-72
2023/09/01 04:55:53;;;;;;;28.20;11.77;;;9.40;99.90;;;;;;5068304;28;20020;-72
2023/09/01 04:58:19;;;;;;;25.17;10.70;;;9.40;99.90;;;;;;5064735;28;20074;-71
2023/09/01 05:00:44;;;;;;;33.40;12.10;;;9.40;99.90;;;;;;5066638;28;20028;-70
2023/09/01 05:03:10;;;;;;;29.58;11.82;;;9.50;99.90;;;;;;5064550;28;20024;-70
2023/09/01 05:05:35;;;;;;;32.13;12.07;;;9.50;99.90;;;;;;5069518;28;20119;-70
2023/09/01 05:08:01;;;;;;;29.88;11.75;;;9.60;99.90;;;;;;5071014;28;20032;-70
2023/09/01 05:10:26;;;;;;;27.25;11.45;;;9.60;99.90;;;;;;5069709;28;20070;-70
2023/09/01 05:12:52;;;;;;;32.10;11.77;;;9.60;99.90;;;;;;5069172;28;20028;-70
2023/09/01 05:15:18;;;;;;;27.38;11.23;;;9.70;99.90;;;;;;5067372;28;20028;-70
2023/09/01 05:17:45;;;;;;;30.95;12.00;;;9.70;99.90;;;;;;5067765;28;20020;-70
2023/09/01 05:20:11;;;;;;;29.92;11.18;;;9.80;99.90;;;;;;5068178;28;20032;-70
2023/09/01 05:22:36;;;;;;;25.15;11.77;;;9.80;99.90;;;;;;5070743;28;20028;-71
2023/09/01 05:25:02;;;;;;;34.72;12.82;;;9.90;99.90;;;;;;5072119;28;20057;-70
2023/09/01 05:27:28;;;;;;;31.48;12.07;;;9.80;99.90;;;;;;5066880;28;20029;-70
2023/09/01 05:29:54;;;;;;;34.67;12.40;;;9.90;99.90;;;;;;5069220;28;20036;-69
2023/09/01 05:32:20;;;;;;;31.45;11.88;;;9.90;99.70;;;;;;5068832;28;20085;-70
2023/09/01 05:34:46;;;;;;;34.83;12.07;;;10.00;99.70;;;;;;5069399;28;20473;-70
2023/09/01 05:37:12;;;;;;;31.77;11.77;;;10.00;99.60;;;;;;5067533;28;20032;-71
2023/09/01 05:39:38;;;;;;;29.13;11.55;;;10.00;99.60;;;;;;5072353;28;20460;-70
2023/09/01 05:42:04;;;;;;;30.85;11.93;;;10.10;99.60;;;;;;5071137;28;20024;-71
2023/09/01 05:44:30;;;;;;;27.92;11.10;;;10.10;99.50;;;;;;5071026;28;20489;-70
2023/09/01 05:46:56;;;;;;;39.58;13.02;;;10.10;99.30;;;;;;5066562;28;20082;-70
2023/09/01 05:49:23;;;;;;;35.00;12.05;;;10.20;99.30;;;;;;5068713;28;20499;-70
2023/09/01 05:51:49;;;;;;;28.05;11.20;;;10.30;99.20;;;;;;5071487;28;20488;-70
2023/09/01 05:54:16;;;;;;;24.77;11.68;;;10.30;99.20;;;;;;5070581;28;20028;-70
2023/09/01 05:56:41;;;;;;;33.92;12.43;;;10.40;99.10;;;;;;5071147;28;20389;-71
2023/09/01 05:59:07;;;;;;;32.78;11.80;;;10.50;99.10;;;;;;5068890;28;20033;-71
2023/09/01 06:01:35;;;;;;;30.88;12.13;;;10.50;99.00;;;;;;5069639;28;20415;-72
2023/09/01 06:04:03;;;;;;;35.55;11.07;;;10.60;99.00;;;;;;5064910;28;20024;-70
2023/09/01 06:06:30;;;;;;;25.90;11.75;;;10.70;98.90;;;;;;5070308;28;20071;-70
2023/09/01 06:08:55;;;;;;;32.97;12.02;;;10.70;98.80;;;;;;5071359;28;20031;-70
2023/09/01 06:11:21;;;;;;;21.73;10.50;;;10.80;98.60;;;;;;5071616;28;20465;-71
2023/09/01 06:13:46;;;;;;;27.08;11.07;;;10.80;98.50;;;;;;5066033;28;20051;-71
2023/09/01 06:16:12;;;;;;;25.15;11.10;;;10.80;98.30;;;;;;5067422;28;20388;-70
2023/09/01 06:18:37;;;;;;;27.75;11.35;;;10.80;98.40;;;;;;5064941;28;20365;-71
2023/09/01 06:21:03;;;;;;;22.23;9.82;;;10.90;98.40;;;;;;5068977;28;20163;-70
2023/09/01 06:23:28;;;;;;;29.05;10.23;;;10.90;98.30;;;;;;5066771;28;20047;-72
2023/09/01 06:25:54;;;;;;;24.58;11.15;;;11.00;98.20;;;;;;5063882;28;20053;-71
2023/09/01 06:28:19;;;;;;;27.88;11.10;;;11.00;98.30;;;;;;5070028;28;20073;-70
2023/09/01 06:30:45;;;;;;;21.27;10.10;;;11.00;98.20;;;;;;5070184;28;20052;-70
2023/09/01 06:33:10;;;;;;;29.30;10.95;;;11.10;98.10;;;;;;5063059;28;20045;-72
2023/09/01 06:35:36;;;;;;;24.58;10.00;;;11.10;98.10;;;;;;5068747;28;20450;-70
2023/09/01 06:38:06;;;;;;;22.40;10.52;;;11.20;98.10;;;;;;5070334;28;20403;-71
2023/09/01 06:40:32;;;;;;;21.73;10.25;;;11.20;98.10;;;;;;5062048;28;20378;-70
2023/09/01 06:42:57;;;;;;;22.85;9.18;;;11.30;98.10;;;;;;5065625;28;20103;-71
2023/09/01 06:45:23;;;;;;;21.15;9.27;;;11.40;98.10;;;;;;5065668;28;20111;-71
2023/09/01 06:47:54;;;;;;;26.38;10.07;;;11.50;98.20;;;;;;5063675;28;20550;-70
2023/09/01 06:50:23;;;;;;;23.38;9.40;;;11.50;98.10;;;;;;5060317;28;20475;-71
2023/09/01 06:52:50;;;;;;;18.20;9.52;;;11.60;98.10;;;;;;5070095;28;20115;-70
2023/09/01 06:55:16;;;;;;;20.38;9.73;;;11.80;98.10;;;;;;5068959;28;20059;-70
2023/09/01 06:57:42;;;;;;;21.92;9.30;;;11.90;97.90;;;;;;5067256;28;20060;-71
2023/09/01 07:00:09;;;;;;;20.05;9.02;;;12.00;97.60;;;;;;5069556;28;20040;-70
2023/09/01 07:02:34;;;;;;;18.10;8.25;;;12.00;97.40;;;;;;5063964;28;20111;-72
2023/09/01 07:05:00;;;;;;;21.55;9.80;;;12.10;97.40;;;;;;5063499;28;20119;-70
2023/09/01 07:07:25;;;;;;;16.67;8.15;;;12.20;97.00;;;;;;5067629;28;20032;-70
2023/09/01 07:09:51;;;;;;;16.00;8.10;;;12.30;96.90;;;;;;5069932;28;20032;-71
2023/09/01 07:12:16;;;;;;;17.27;7.65;;;12.30;96.70;;;;;;5065594;28;20090;-71
2023/09/01 07:14:42;;;;;;;13.13;7.03;;;12.40;96.70;;;;;;5063857;28;20036;-71
2023/09/01 07:17:10;;;;;;;15.00;7.25;;;12.50;96.80;;;;;;5063150;28;20481;-71
2023/09/01 07:19:36;;;;;;;12.50;6.85;;;12.60;96.90;;;;;;5059295;28;20481;-71
2023/09/01 07:22:03;;;;;;;14.70;6.25;;;12.60;96.30;;;;;;5060636;28;20064;-71
2023/09/01 07:24:28;;;;;;;10.88;6.28;;;12.70;95.90;;;;;;5061857;28;20063;-71
2023/09/01 07:26:54;;;;;;;13.90;6.65;;;12.70;95.60;;;;;;5066054;28;20496;-71
2023/09/01 07:29:19;;;;;;;14.77;6.03;;;12.90;96.10;;;;;;5068202;28;20363;-70
2023/09/01 07:31:45;;;;;;;8.52;5.75;;;12.90;95.40;;;;;;5063992;28;20031;-70
2023/09/01 07:34:10;;;;;;;11.85;5.50;;;13.00;94.90;;;;;;5058702;28;20422;-71
2023/09/01 07:36:36;;;;;;;12.23;5.63;;;13.00;94.90;;;;;;5062309;28;20119;-71
2023/09/01 07:39:01;;;;;;;8.82;4.47;;;13.30;95.10;;;;;;5069340;28;20036;-71
2023/09/01 07:41:27;;;;;;;11.52;5.15;;;13.30;94.50;;;;;;5062010;28;20044;-70
2023/09/01 07:43:52;;;;;;;11.38;4.65;;;13.50;94.80;;;;;;5068795;28;20552;-71
2023/09/01 07:46:18;;;;;;;9.95;3.92;;;13.60;94.10;;;;;;5056947;28;20098;-71
2023/09/01 07:48:43;;;;;;;11.75;4.57;;;13.60;93.50;;;;;;5063713;28;20052;-71
2023/09/01 07:51:08;;;;;;;9.70;3.70;;;13.70;93.50;;;;;;5070027;28;20115;-73
2023/09/01 07:53:34;;;;;;;8.35;3.20;;;13.80;93.00;;;;;;5060815;28;20032;-73
2023/09/01 07:55:59;;;;;;;5.60;2.95;;;14.10;92.60;;;;;;5066182;28;20372;-70
2023/09/01 07:58:25;;;;;;;5.15;2.90;;;14.20;92.50;;;;;;5073223;28;20028;-71
2023/09/01 08:00:52;;;;;;;7.78;3.45;;;14.40;91.80;;;;;;5073370;28;20024;-71
2023/09/01 08:03:17;;;;;;;9.93;3.45;;;14.50;91.60;;;;;;5067772;28;20499;-71
2023/09/01 08:05:43;;;;;;;9.43;3.38;;;14.60;91.10;;;;;;5072463;28;20024;-72
2023/09/01 08:08:12;;;;;;;8.85;3.03;;;14.80;90.90;;;;;;5071504;28;20354;-71
2023/09/01 08:10:37;;;;;;;6.63;2.95;;;14.80;89.90;;;;;;5073788;28;20024;-71
2023/09/01 08:13:05;;;;;;;6.03;2.30;;;15.00;90.70;;;;;;5066172;28;20029;-71
2023/09/01 08:15:30;;;;;;;7.63;3.10;;;15.30;90.40;;;;;;5065787;28;20495;-71
2023/09/01 08:17:56;;;;;;;4.50;2.00;;;15.40;89.70;;;;;;5067287;28;20024;-72
2023/09/01 08:20:22;;;;;;;9.70;2.03;;;15.60;88.20;;;;;;5067553;28;20059;-71
2023/09/01 08:22:47;;;;;;;7.90;2.50;;;15.80;87.60;;;;;;5074370;28;20024;-71
2023/09/01 08:25:13;;;;;;;5.13;2.08;;;15.80;87.00;;;;;;5071922;28;20065;-71
2023/09/01 08:27:39;;;;;;;7.68;1.83;;;16.00;86.70;;;;;;5072437;28;20476;-72
2023/09/01 08:30:06;;;;;;;4.93;1.95;;;16.20;87.30;;;;;;5068266;28;20029;-71
2023/09/01 08:32:33;;;;;;;4.50;1.80;;;16.30;85.80;;;;;;5067572;28;20044;-70
2023/09/01 08:34:58;;;;;;;6.32;1.80;;;16.50;85.80;;;;;;5069552;28;20373;-71
2023/09/01 08:37:24;;;;;;;5.35;1.90;;;16.60;84.80;;;;;;5071907;28;20077;-71
2023/09/01 08:39:49;;;;;;;6.18;1.60;;;16.70;83.50;;;;;;5067675;28;20126;-71
2023/09/01 08:42:16;;;;;;;3.72;1.35;;;16.80;83.50;;;;;;5061455;28;20473;-70
2023/09/01 08:44:42;;;;;;;4.70;1.45;;;17.00;82.90;;;;;;5069561;28;20017;-71
2023/09/01 08:47:09;;;;;;;4.07;1.38;;;16.80;82.40;;;;;;5067110;28;20611;-72
2023/09/01 08:49:35;;;;;;;5.20;1.40;;;16.80;82.80;;;;;;5068374;28;20029;-71
2023/09/01 08:52:02;;;;;;;4.13;1.70;;;16.90;82.90;;;;;;5079089;28;20028;-71
2023/09/01 08:54:30;;;;;;;5.75;1.65;;;17.00;82.10;;;;;;5070698;28;20212;-71
2023/09/01 08:56:55;;;;;;;3.35;1.40;;;17.10;82.00;;;;;;5072195;28;20025;-71
2023/09/01 08:59:21;;;;;;;4.20;1.33;;;17.50;83.20;;;;;;5068476;28;20039;-71
2023/09/01 09:01:48;;;;;;;7.47;1.67;;;17.70;83.40;;;;;;5069419;28;20033;-72
2023/09/01 09:04:13;;;;;;;8.68;1.60;;;17.80;81.10;;;;;;5069282;28;20082;-72
2023/09/01 09:06:40;;;;;;;4.60;1.40;;;17.80;80.70;;;;;;5072290;28;20040;-72
2023/09/01 09:09:14;;;;;;;9.23;1.65;;;17.80;79.40;;;;;;5071728;28;20045;-72
2023/09/01 09:11:54;;;;;;;3.72;0.95;;;17.70;79.00;;;;;;5072126;28;20024;-71
2023/09/01 09:14:20;;;;;;;3.58;1.40;;;17.70;78.00;;;;;;5066301;28;20027;-71
2023/09/01 09:16:53;;;;;;;6.25;1.27;;;17.80;77.60;;;;;;5071748;28;20389;-71
2023/09/01 09:19:19;;;;;;;3.00;0.90;;;18.20;78.60;;;;;;5067379;28;20552;-71
2023/09/01 09:21:44;;;;;;;4.68;1.10;;;18.30;76.00;;;;;;5072909;28;20082;-71
2023/09/01 09:24:11;;;;;;;3.20;1.08;;;18.50;74.90;;;;;;5071112;28;20157;-71
2023/09/01 09:26:36;;;;;;;4.22;0.98;;;18.20;74.80;;;;;;5070926;28;20119;-71
2023/09/01 09:29:06;;;;;;;3.40;1.08;;;18.30;76.10;;;;;;5066397;28;20710;-71
2023/09/01 09:31:36;;;;;;;5.18;0.98;;;18.20;75.40;;;;;;5069800;28;20103;-71
2023/09/01 09:34:19;;;;;;;3.53;1.00;;;18.00;74.80;;;;;;5066970;28;20486;-71
2023/09/01 09:36:46;;;;;;;3.22;0.85;;;17.80;73.90;;;;;;5070705;28;20025;-71
2023/09/01 09:39:25;;;;;;;4.70;1.02;;;17.90;75.20;;;;;;5073048;28;20031;-71
2023/09/01 09:41:51;;;;;;;4.43;1.20;;;18.10;74.30;;;;;;5074496;28;20087;-71
2023/09/01 09:44:26;;;;;;;2.20;0.85;;;18.00;74.10;;;;;;5069933;28;20032;-70
2023/09/01 09:46:55;;;;;;;3.58;0.75;;;18.00;74.90;;;;;;5070123;28;20476;-71
2023/09/01 09:49:23;;;;;;;3.08;0.95;;;18.40;73.50;;;;;;5069282;28;20025;-71
2023/09/01 09:51:53;;;;;;;2.50;0.80;;;18.80;72.40;;;;;;5070833;28;20115;-71
2023/09/01 09:54:23;;;;;;;3.13;0.90;;;19.10;68.80;;;;;;5072402;28;20081;-71
2023/09/01 09:56:52;;;;;;;5.82;0.98;;;19.20;67.50;;;;;;5066967;28;20361;-71
2023/09/01 09:59:30;;;;;;;2.83;0.80;;;19.20;68.70;;;;;;5063781;28;20089;-71
2023/09/01 10:02:04;;;;;;;5.63;0.75;;;19.00;64.60;;;;;;5067020;28;20029;-71
2023/09/01 10:04:30;;;;;;;2.13;0.80;;;19.30;67.70;;;;;;5065264;28;20064;-71
2023/09/01 10:06:56;;;;;;;2.35;0.88;;;19.30;67.40;;;;;;5072582;28;20029;-71
2023/09/01 10:09:22;;;;;;;2.15;0.70;;;19.30;63.60;;;;;;5072143;28;20101;-71
2023/09/01 10:11:47;;;;;;;2.47;0.77;;;19.50;65.20;;;;;;5063977;28;20104;-71
2023/09/01 10:14:16;;;;;;;5.35;0.88;;;19.40;64.20;;;;;;5065463;28;20465;-70
2023/09/01 10:16:42;;;;;;;4.30;0.80;;;19.50;67.80;;;;;;5060773;28;20093;-72
2023/09/01 10:19:11;;;;;;;1.65;0.80;;;19.40;65.10;;;;;;5068468;28;20040;-71
2023/09/01 10:21:40;;;;;;;1.67;0.60;;;19.10;64.00;;;;;;5070464;28;20162;-71
2023/09/01 10:24:12;;;;;;;2.60;1.08;;;19.10;65.80;;;;;;5069899;28;20036;-71
2023/09/01 10:26:38;;;;;;;4.18;0.80;;;19.00;63.80;;;;;;5068051;28;20041;-74
2023/09/01 10:29:04;;;;;;;4.10;0.65;;;19.20;65.80;;;;;;5068003;28;20802;-71
2023/09/01 10:31:33;;;;;;;2.28;0.90;;;19.30;65.90;;;;;;5065875;28;20436;-71
2023/09/01 10:34:10;;;;;;;2.75;0.90;;;19.50;66.50;;;;;;5062256;28;20311;-71
2023/09/01 10:36:40;;;;;;;3.00;0.70;;;19.80;64.90;;;;;;5067200;28;20089;-71
2023/09/01 10:39:21;;;;;;;2.85;1.17;;;19.60;65.00;;;;;;5071720;28;20039;-71
2023/09/01 10:41:57;;;;;;;1.80;0.70;;;19.50;65.20;;;;;;5057284;28;20028;-72
2023/09/01 10:44:26;;;;;;;3.55;0.88;;;19.60;65.80;;;;;;5069095;28;20036;-71
2023/09/01 10:46:51;;;;;;;2.90;0.77;;;19.40;65.40;;;;;;5066593;28;20025;-71
2023/09/01 10:49:17;;;;;;;3.47;0.75;;;19.50;65.40;;;;;;5063336;28;20029;-71
2023/09/01 10:51:43;;;;;;;4.85;1.10;;;19.50;65.60;;;;;;5070214;28;20492;-71
2023/09/01 10:54:15;;;;;;;1.20;0.77;;;19.80;67.70;;;;;;5071625;28;20468;-71
2023/09/01 10:56:58;;;;;;;4.72;1.10;;;20.00;66.10;;;;;;5068939;28;20515;-71
2023/09/01 10:59:31;;;;;;;2.20;0.70;;;20.30;64.00;;;;;;5068973;28;20039;-72
2023/09/01 11:02:15;;;;;;;2.60;0.90;;;20.40;62.90;;;;;;5066768;28;20040;-72
2023/09/01 11:04:41;;;;;;;2.88;0.75;;;20.50;63.30;;;;;;5066247;28;20041;-71
2023/09/01 11:07:08;;;;;;;2.55;0.80;;;20.50;62.60;;;;;;5070281;28;20048;-72
2023/09/01 11:09:33;;;;;;;3.35;0.60;;;20.80;63.00;;;;;;5071155;28;20489;-71
2023/09/01 11:11:59;;;;;;;3.95;0.93;;;20.70;62.70;;;;;;5068907;28;20040;-71
2023/09/01 11:14:25;;;;;;;2.45;0.90;;;21.00;64.60;;;;;;5064391;28;20477;-72
2023/09/01 11:16:50;;;;;;;5.22;1.00;;;20.90;59.20;;;;;;5065315;28;20035;-72
2023/09/01 11:19:16;;;;;;;2.28;0.73;;;20.50;59.40;;;;;;5065904;28;20501;-71
2023/09/01 11:21:41;;;;;;;3.97;0.80;;;20.70;60.20;;;;;;5069750;28;20043;-71
2023/09/01 11:24:07;;;;;;;3.33;0.60;;;20.40;60.00;;;;;;5070774;28;21625;-72
2023/09/01 11:26:36;;;;;;;3.17;0.90;;;20.50;60.50;;;;;;5069009;28;20028;-72
2023/09/01 11:29:02;;;;;;;2.08;0.70;;;20.30;63.30;;;;;;5063414;28;20040;-72
2023/09/01 11:31:38;;;;;;;2.00;0.63;;;20.60;62.20;;;;;;5066601;28;20532;-73
2023/09/01 11:34:03;;;;;;;2.08;1.13;;;20.50;60.50;;;;;;5064494;28;20037;-71
2023/09/01 11:36:29;;;;;;;3.83;1.10;;;20.30;60.70;;;;;;5067310;28;20039;-72
2023/09/01 11:38:54;;;;;;;4.35;0.90;;;20.30;60.10;;;;;;5070837;28;20036;-71
2023/09/01 11:41:21;;;;;;;4.05;0.80;;;20.20;62.00;;;;;;5062269;28;20044;-71
2023/09/01 11:43:47;;;;;;;2.67;0.90;;;20.00;61.00;;;;;;5072040;28;20082;-71
2023/09/01 11:46:13;;;;;;;1.88;0.68;;;20.00;60.40;;;;;;5067515;28;20423;-71
2023/09/01 11:48:39;;;;;;;1.73;0.90;;;20.20;60.00;;;;;;5067207;28;20032;-70
2023/09/01 11:51:05;;;;;;;1.25;0.60;;;20.40;59.70;;;;;;5069140;28;20033;-72
2023/09/01 11:53:32;;;;;;;4.82;0.90;;;20.50;60.00;;;;;;5070405;28;20020;-71
2023/09/01 11:55:59;;;;;;;1.90;0.75;;;20.70;60.50;;;;;;5068874;28;20013;-70
2023/09/01 11:58:25;;;;;;;2.42;0.80;;;20.50;61.50;;;;;;5064678;28;20503;-74
2023/09/01 12:00:51;;;;;;;2.85;0.90;;;20.60;60.30;;;;;;5069120;28;20354;-71
2023/09/01 12:03:21;;;;;;;3.53;0.95;;;20.70;60.90;;;;;;5063021;28;20097;-73
2023/09/01 12:05:47;;;;;;;1.95;0.80;;;20.90;58.70;;;;;;5070662;28;20027;-72
2023/09/01 12:08:13;;;;;;;2.58;0.77;;;20.90;58.60;;;;;;5069965;28;20112;-71
2023/09/01 12:10:38;;;;;;;4.75;0.95;;;20.90;57.50;;;;;;5070527;28;20107;-71
2023/09/01 12:13:09;;;;;;;4.68;0.93;;;20.80;57.30;;;;;;5064406;28;20021;-71
2023/09/01 12:15:53;;;;;;;;;;;20.60;58.60;;;;;;5061602;28;20500;-71
2023/09/01 12:18:33;;;;;;;3.50;1.10;;;20.70;59.60;;;;;;5059016;28;19923;-70
2023/09/01 12:21:00;;;;;;;2.65;0.88;;;20.50;59.00;;;;;;5068908;28;20067;-71
2023/09/01 12:23:30;;;;;;;5.55;1.30;;;20.40;60.00;;;;;;5069873;28;20380;-71
2023/09/01 12:25:57;;;;;;;1.52;0.95;;;20.30;61.00;;;;;;5069515;28;20068;-72
2023/09/01 12:28:25;;;;;;;2.42;0.90;;;20.20;59.70;;;;;;5064339;28;20033;-71
2023/09/01 12:30:51;;;;;;;3.85;1.25;;;20.50;61.50;;;;;;5066262;28;20017;-70
2023/09/01 12:33:16;;;;;;;2.58;1.10;;;20.40;62.10;;;;;;5060675;28;20032;-72
2023/09/01 12:35:42;;;;;;;3.92;1.35;;;20.60;61.90;;;;;;5062425;28;20389;-71
2023/09/01 12:38:07;;;;;;;4.35;1.27;;;20.60;60.90;;;;;;5062407;28;20496;-71
2023/09/01 12:40:34;;;;;;;3.45;0.93;;;20.40;62.00;;;;;;5066770;28;20056;-72